createdAt,value
2022-12-29T00:03:09.831Z,69.65
2022-12-29T00:08:41.162Z,69.16
2022-12-29T00:14:26.022Z,69.11
2022-12-29T00:20:06.322Z,69.11
2022-12-29T00:25:47.230Z,68.98
2022-12-29T00:31:31.314Z,69.34
2022-12-29T00:36:54.161Z,69.69
2022-12-29T00:42:34.220Z,68.95
2022-12-29T00:47:55.948Z,68.85
2022-12-29T00:53:17.674Z,67.48
2022-12-29T00:58:39.403Z,68.58
2022-12-29T01:04:04.137Z,68.51
2022-12-29T01:09:45.108Z,69.05
2022-12-29T01:15:08.947Z,68.55
2022-12-29T01:20:30.856Z,68.74
2022-12-29T01:25:52.588Z,67.92
2022-12-29T01:31:16.312Z,67.41
2022-12-29T01:36:38.054Z,66.42
2022-12-29T01:41:59.772Z,66.34
2022-12-29T01:47:45.584Z,66.34
2022-12-29T01:53:18.460Z,66.37
2022-12-29T01:58:43.909Z,66.59
2022-12-29T02:04:05.684Z,66.59
2022-12-29T02:09:27.422Z,66.76
2022-12-29T02:14:52.790Z,66.67
2022-12-29T02:20:38.357Z,66.53
2022-12-29T02:26:33.364Z,66.33
2022-12-29T02:32:13.956Z,66.66
2022-12-29T02:37:38.363Z,66.58
2022-12-29T02:43:13.311Z,67.00
2022-12-29T02:48:51.655Z,66.54
2022-12-29T02:54:31.992Z,65.62
2022-12-29T03:00:09.527Z,65.52
2022-12-29T03:05:52.728Z,66.35
2022-12-29T03:11:33.715Z,65.32
2022-12-29T03:17:05.067Z,66.22
2022-12-29T03:22:32.354Z,66.55
2022-12-29T03:27:58.198Z,66.50
2022-12-29T03:33:26.188Z,66.70
2022-12-29T03:38:54.484Z,66.43
2022-12-29T03:44:16.153Z,66.55
2022-12-29T03:49:39.068Z,66.17
2022-12-29T03:55:00.805Z,66.06
2022-12-29T04:00:22.537Z,66.55
2022-12-29T04:05:44.227Z,66.39
2022-12-29T04:11:06.196Z,65.96
2022-12-29T04:16:27.903Z,66.21
2022-12-29T04:21:49.585Z,66.08
2022-12-29T04:27:11.265Z,67.21
2022-12-29T04:32:33.009Z,67.57
2022-12-29T04:37:54.741Z,67.35
2022-12-29T04:43:18.235Z,67.88
2022-12-29T04:48:40.023Z,68.35
2022-12-29T04:54:01.855Z,68.36
2022-12-29T04:59:23.637Z,69.29
2022-12-29T05:04:45.690Z,69.87
2022-12-29T05:10:08.227Z,69.31
2022-12-29T05:15:29.933Z,68.98
2022-12-29T05:20:51.700Z,70.23
2022-12-29T05:26:13.404Z,69.34
2022-12-29T05:31:36.602Z,69.19
2022-12-29T05:36:58.435Z,69.39
2022-12-29T05:42:20.158Z,68.51
2022-12-29T05:47:41.887Z,69.45
2022-12-29T05:53:03.892Z,69.96
2022-12-29T05:58:25.601Z,68.24
2022-12-29T06:03:48.508Z,68.35
2022-12-29T06:09:11.871Z,66.66
2022-12-29T06:14:33.634Z,65.90
2022-12-29T06:19:55.722Z,66.51
2022-12-29T06:25:17.728Z,66.20
2022-12-29T06:30:39.493Z,66.20
2022-12-29T06:36:01.232Z,65.80
2022-12-29T06:41:28.381Z,65.01
2022-12-29T06:46:53.551Z,64.82
2022-12-29T06:52:15.245Z,64.03
2022-12-29T06:57:36.971Z,62.80
2022-12-29T07:03:01.574Z,62.56
2022-12-29T07:08:23.381Z,63.45
2022-12-29T07:13:45.120Z,62.52
2022-12-29T07:19:06.916Z,62.99
2022-12-29T07:24:28.943Z,63.11
2022-12-29T07:29:50.641Z,64.10
2022-12-29T07:35:12.383Z,65.80
2022-12-29T07:40:34.145Z,66.17
2022-12-29T07:45:55.889Z,65.79
2022-12-29T07:51:17.603Z,66.17
2022-12-29T07:56:39.388Z,66.59
2022-12-29T08:02:01.745Z,65.72
2022-12-29T08:07:23.527Z,65.50
2022-12-29T08:12:45.350Z,65.17
2022-12-29T08:18:07.166Z,64.28
2022-12-29T08:23:28.831Z,65.14
2022-12-29T08:28:53.364Z,65.50
2022-12-29T08:34:15.055Z,65.77
2022-12-29T08:39:36.796Z,66.58
2022-12-29T08:44:59.838Z,66.42
2022-12-29T08:50:21.563Z,67.13
2022-12-29T08:55:43.241Z,67.65
2022-12-29T09:01:05.279Z,67.38
2022-12-29T09:06:27.034Z,66.30
2022-12-29T09:11:48.842Z,66.85
2022-12-29T09:17:29.585Z,65.43
2022-12-29T09:22:51.297Z,65.74
2022-12-29T09:28:13.000Z,66.05
2022-12-29T09:33:35.299Z,64.65
2022-12-29T09:38:57.015Z,64.78
2022-12-29T09:44:46.265Z,64.56
2022-12-29T09:50:26.545Z,62.77
2022-12-29T09:55:51.837Z,64.31
2022-12-29T10:01:27.438Z,62.31
2022-12-29T10:07:29.311Z,63.58
2022-12-29T10:13:10.356Z,64.16
2022-12-29T10:18:50.010Z,64.61
2022-12-29T10:24:13.414Z,64.72
2022-12-29T10:29:41.777Z,62.70
2022-12-29T10:35:15.239Z,64.31
2022-12-29T10:40:59.060Z,64.52
2022-12-29T10:46:24.149Z,64.50
2022-12-29T10:51:48.187Z,64.44
2022-12-29T10:57:25.317Z,64.25
2022-12-29T11:03:07.814Z,63.77
2022-12-29T11:08:35.866Z,63.03
2022-12-29T11:14:18.655Z,62.36
2022-12-29T11:19:41.283Z,62.87
2022-12-29T11:25:13.168Z,63.41
2022-12-29T11:30:34.837Z,63.08
2022-12-29T11:36:05.129Z,63.56
2022-12-29T11:41:32.490Z,63.17
2022-12-29T11:46:55.095Z,65.30
2022-12-29T11:52:17.430Z,68.02
2022-12-29T11:57:43.067Z,70.04
2022-12-29T12:03:11.605Z,69.75
2022-12-29T12:08:47.295Z,72.75
2022-12-29T12:14:44.538Z,75.81
2022-12-29T12:20:06.598Z,76.59
2022-12-29T12:25:38.643Z,73.41
2022-12-29T12:31:05.735Z,71.90
2022-12-29T12:36:44.920Z,70.86
2022-12-29T12:42:25.187Z,71.35
2022-12-29T12:48:11.728Z,72.09
2022-12-29T12:53:59.660Z,72.96
2022-12-29T12:59:34.188Z,74.23
2022-12-29T13:05:30.074Z,73.43
2022-12-29T13:10:56.595Z,73.23
2022-12-29T13:16:27.685Z,73.95
2022-12-29T13:22:06.984Z,74.45
2022-12-29T13:27:35.234Z,73.73
2022-12-29T13:33:33.187Z,72.92
2022-12-29T13:39:12.858Z,73.47
2022-12-29T13:44:55.742Z,73.49
2022-12-29T13:50:24.123Z,74.19
2022-12-29T13:56:09.916Z,73.75
2022-12-29T14:01:42.735Z,74.43
2022-12-29T14:07:18.162Z,74.86
2022-12-29T14:12:44.552Z,74.14
2022-12-29T14:18:15.220Z,74.89
2022-12-29T14:23:45.874Z,74.95
2022-12-29T14:29:37.394Z,74.76
2022-12-29T14:35:02.003Z,75.84
2022-12-29T14:40:25.984Z,75.91
2022-12-29T14:45:56.359Z,75.02
2022-12-29T14:51:30.174Z,75.86
2022-12-29T14:56:53.562Z,76.56
2022-12-29T15:02:23.127Z,76.69
2022-12-29T15:07:45.105Z,76.75
2022-12-29T15:13:16.400Z,76.59
2022-12-29T15:18:43.423Z,75.37
2022-12-29T15:24:05.482Z,75.17
2022-12-29T15:29:41.998Z,74.11
2022-12-29T15:35:24.785Z,75.15
2022-12-29T15:40:47.311Z,74.90
2022-12-29T15:46:12.041Z,74.43
2022-12-29T15:51:40.546Z,74.88
2022-12-29T15:57:02.456Z,74.02
2022-12-29T16:02:26.238Z,76.76
2022-12-29T16:08:00.196Z,78.63
2022-12-29T16:13:39.656Z,79.36
2022-12-29T16:19:07.446Z,81.19
2022-12-29T16:24:33.364Z,82.41
2022-12-29T16:29:56.326Z,84.53
2022-12-29T16:35:23.760Z,85.98
2022-12-29T16:41:03.393Z,85.99
2022-12-29T16:46:30.167Z,85.55
2022-12-29T16:51:55.112Z,86.18
2022-12-29T16:57:23.213Z,87.99
2022-12-29T17:02:45.649Z,91.28
2022-12-29T17:08:40.889Z,93.45
2022-12-29T17:14:02.575Z,94.56
2022-12-29T17:19:33.185Z,93.28
2022-12-29T17:24:57.261Z,94.30
2022-12-29T17:30:24.264Z,96.97
2022-12-29T17:35:54.853Z,97.39
2022-12-29T17:41:17.115Z,97.63
2022-12-29T17:46:38.927Z,98.84
2022-12-29T17:52:00.737Z,98.79
2022-12-29T17:57:22.591Z,96.64
2022-12-29T18:02:44.618Z,98.63
2022-12-29T18:08:08.834Z,99.99
2022-12-29T18:13:43.602Z,99.63
2022-12-29T18:19:09.173Z,97.18
2022-12-29T18:24:30.850Z,96.26
2022-12-29T18:29:52.683Z,95.61
2022-12-29T18:35:25.791Z,96.17
2022-12-29T18:40:49.244Z,96.24
2022-12-29T18:46:12.133Z,95.90
2022-12-29T18:51:35.696Z,98.13
2022-12-29T18:56:58.287Z,97.72
2022-12-29T19:02:20.115Z,99.37
2022-12-29T19:07:41.915Z,99.23
2022-12-29T19:13:03.958Z,98.11
2022-12-29T19:18:45.350Z,99.88
2022-12-29T19:24:09.344Z,99.23
2022-12-29T19:29:31.158Z,98.03
2022-12-29T19:34:52.884Z,99.74
2022-12-29T19:40:18.459Z,100.00
2022-12-29T19:45:41.572Z,100.00
2022-12-29T19:51:08.669Z,100.00
2022-12-29T19:56:31.233Z,100.00
2022-12-29T20:01:53.139Z,100.00
2022-12-29T20:07:17.825Z,100.00
2022-12-29T20:12:39.796Z,100.00
2022-12-29T20:18:13.195Z,100.00
2022-12-29T20:23:39.229Z,100.00
2022-12-29T20:29:01.132Z,100.00
2022-12-29T20:34:23.040Z,99.00
2022-12-29T20:39:45.152Z,100.00
2022-12-29T20:45:07.000Z,100.00
2022-12-29T20:50:28.913Z,100.00
2022-12-29T20:55:50.988Z,100.00
2022-12-29T21:01:15.895Z,96.53
2022-12-29T21:06:37.910Z,96.83
2022-12-29T21:11:59.920Z,97.35
2022-12-29T21:17:21.590Z,99.81
2022-12-29T21:22:43.338Z,100.00
2022-12-29T21:28:12.190Z,100.00
2022-12-29T21:33:34.061Z,100.00
2022-12-29T21:38:56.485Z,100.00
2022-12-29T21:44:36.826Z,100.00
2022-12-29T21:49:58.521Z,98.37
2022-12-29T21:55:20.459Z,97.32
2022-12-29T22:01:00.642Z,96.50
2022-12-29T22:06:40.883Z,96.51
2022-12-29T22:12:20.987Z,97.61
2022-12-29T22:17:49.052Z,95.10
2022-12-29T22:23:10.962Z,93.64
2022-12-29T22:28:37.767Z,93.45
2022-12-29T22:34:01.796Z,92.97
2022-12-29T22:39:23.622Z,92.80
2022-12-29T22:44:45.341Z,93.90
2022-12-29T22:50:07.651Z,94.65
2022-12-29T22:55:29.441Z,96.62
2022-12-29T23:00:51.175Z,95.03
2022-12-29T23:06:14.665Z,94.35
2022-12-29T23:11:36.460Z,94.07
2022-12-29T23:16:58.157Z,95.30
2022-12-29T23:22:20.593Z,94.67
2022-12-29T23:27:42.324Z,95.39
2022-12-29T23:33:04.101Z,95.52
2022-12-29T23:38:26.007Z,94.20
2022-12-29T23:43:49.067Z,94.88
2022-12-29T23:49:11.015Z,95.96
2022-12-29T23:54:32.722Z,95.63
2022-12-29T23:59:54.410Z,95.05
